Date,TemperatureHighF,TemperatureAvgF,TemperatureLowF,DewpointHighF,DewpointAvgF,DewpointLowF,HumidityHigh,HumidityAvg,HumidityLow,PressureMaxIn,PressureMinIn,WindSpeedMaxMPH,WindSpeedAvgMPH,GustSpeedMaxMPH,PrecipitationSumIn
2013-3-1,60,51,42,41,38,35,78,63,44,30.20,29.91,17,2,17,0.00
2013-3-2,55,52,48,42,40,34,69,62,52,30.04,29.80,30,9,30,0.00
2013-3-3,63,52,43,41,34,28,77,52,27,30.14,30.03,14,3,14,0.00
2013-3-4,63,50,39,46,39,29,76,67,48,30.26,30.13,12,1,12,0.00
2013-3-5,66,52,39,46,38,29,77,61,28,30.26,30.06,13,1,13,0.00
2013-3-6,64,57,51,50,44,33,76,64,35,30.08,29.81,39,8,39,0.53
2013-3-7,63,58,56,55,48,41,76,68,57,29.87,29.79,19,5,19,0.04
2013-3-8,65,58,52,53,45,30,76,62,41,29.87,29.74,18,5,18,0.35
2013-3-9,65,59,54,52,47,40,76,66,46,29.87,29.77,20,6,20,0.00
2013-3-10,65,58,54,52,46,35,76,64,48,29.79,29.67,21,6,21,0.10
2013-3-11,61,57,53,51,48,41,76,73,64,29.71,29.65,18,6,18,0.25
2013-3-12,59,52,47,49,43,30,77,70,49,29.69,29.58,22,5,22,1.59
2013-3-13,58,52,49,48,42,33,77,69,52,29.61,29.32,21,4,21,0.45
2013-3-14,52,48,44,43,34,26,77,59,43,29.37,29.13,12,2,12,1.18
2013-3-15,45,42,36,35,30,21,78,63,50,29.91,29.35,20,5,20,0.83
2013-3-16,53,43,35,33,29,23,78,59,33,30.20,29.91,12,2,12,0.00
2013-3-17,56,48,35,42,35,29,78,63,46,30.19,29.91,20,4,20,0.00
2013-3-18,64,57,52,52,46,36,76,66,45,29.91,29.64,30,9,30,0.31
2013-3-19,62,54,45,46,42,37,77,63,47,29.90,29.76,18,4,18,0.00
2013-3-20,65,53,41,43,37,32,77,59,35,29.90,29.75,9,1,9,0.00
2013-3-21,62,56,47,47,40,28,77,56,36,30.02,29.69,22,4,22,0.08
2013-3-22,62,52,41,47,41,33,77,68,53,30.02,29.93,14,2,14,0.00
2013-3-23,68,54,42,48,40,27,76,60,35,30.01,29.85,16,2,16,0.00
2013-3-24,75,61,48,47,40,29,77,50,19,29.86,29.52,23,4,23,0.00
2013-3-25,62,58,55,51,47,34,76,69,45,29.56,29.38,20,7,20,0.27
2013-3-26,59,54,51,50,44,30,76,69,46,29.66,29.56,19,3,19,0.22
2013-3-27,60,55,49,50,45,33,76,70,54,29.89,29.65,20,4,20,0.02
2013-3-28,64,57,52,53,47,39,76,70,54,29.97,29.86,16,2,16,0.00
2013-3-29,70,60,52,56,45,28,75,57,38,29.96,29.86,19,4,19,0.04
2013-3-30,66,58,51,53,47,35,76,67,51,29.87,29.60,19,6,19,0.16
2013-3-31,58,56,53,50,47,43,77,73,60,29.77,29.61,23,10,23,0.37